Time;durP1;ratioP1;P1;durP2;ratioP2;P2;SDS_P1;SDS_P2;PMS_P1;PMS_P2;Temp;Humidity;BMP_temperature;BMP_pressure;BME280_temperature;BME280_humidity;BME280_pressure;Samples;Min_cycle;Max_cycle;Signal;HPM_P1;HPM_P2
2024/03/02 00:00:10;;;;;;;29.67;15.57;;;8.60;99.90;8.40;99535.00;;;;4906432;28;94190;-65
2024/03/02 00:02:44;;;;;;;24.10;12.90;;;8.60;99.90;8.40;99534.00;;;;4903900;28;94273;-65
2024/03/02 00:05:16;;;;;;;23.80;14.73;;;8.50;99.90;8.50;99535.00;;;;4908481;28;93917;-65
2024/03/02 00:07:43;;;;;;;22.30;14.17;;;8.60;99.90;8.50;99534.00;;;;4909469;28;92887;-65
2024/03/02 00:10:11;;;;;;;20.53;14.40;;;8.60;99.90;8.50;99534.00;;;;4907426;28;93686;-65
2024/03/02 00:12:39;;;;;;;22.90;15.07;;;8.70;99.90;8.50;99537.00;;;;4911880;28;93761;-65
2024/03/02 00:15:30;;;;;;;28.50;15.80;;;8.60;99.90;8.50;99538.00;;;;4912241;28;92938;-65
2024/03/02 00:17:56;;;;;;;20.23;13.37;;;8.60;99.90;8.60;99534.00;;;;4909678;28;99472;-64
2024/03/02 00:20:23;;;;;;;20.57;14.20;;;8.60;99.90;8.60;99536.00;;;;4908456;28;114342;-64
2024/03/02 00:22:50;;;;;;;19.87;14.53;;;8.70;99.90;8.60;99530.00;;;;4910162;28;93864;-65
2024/03/02 00:25:16;;;;;;;28.83;16.60;;;8.70;99.90;8.70;99528.00;;;;4906378;28;93180;-65
2024/03/02 00:27:42;;;;;;;19.47;14.23;;;8.70;99.90;8.70;99524.00;;;;4909853;28;101073;-65
2024/03/02 00:30:54;;;;;;;26.57;15.40;;;8.80;99.90;8.70;99515.00;;;;4906489;28;122737;-66
2024/03/02 00:33:21;;;;;;;27.97;15.27;;;8.80;99.90;8.70;99513.00;;;;4903774;28;92714;-64
2024/03/02 00:35:49;;;;;;;22.23;14.60;;;8.80;99.90;8.80;99523.00;;;;4909697;28;92680;-65
2024/03/02 00:38:15;;;;;;;23.33;15.60;;;8.80;99.90;8.80;99523.00;;;;4910351;28;92811;-65
2024/03/02 00:40:43;;;;;;;26.07;13.97;;;8.90;99.90;8.80;99515.00;;;;4907332;28;93828;-65
2024/03/02 00:43:45;;;;;;;27.30;15.17;;;8.50;99.90;8.80;99519.00;;;;4904878;28;93395;-65
2024/03/02 00:46:13;;;;;;;24.87;14.30;;;8.90;99.90;8.80;99520.00;;;;4910474;28;92126;-65
2024/03/02 00:48:52;;;;;;;23.70;14.17;;;8.90;99.90;8.80;99518.00;;;;4906846;28;93046;-64
2024/03/02 00:51:18;;;;;;;20.43;13.60;;;9.00;99.90;8.80;99531.00;;;;4907980;28;93415;-65
2024/03/02 00:53:44;;;;;;;22.80;14.47;;;8.90;99.90;8.80;99528.00;;;;4908524;28;123686;-65
2024/03/02 00:56:11;;;;;;;21.40;13.17;;;8.90;99.90;8.80;99522.00;;;;4913254;28;93521;-64
2024/03/02 00:58:38;;;;;;;21.57;14.10;;;8.90;99.90;8.80;99515.00;;;;4907658;28;93220;-64
2024/03/02 01:01:04;;;;;;;17.47;12.97;;;8.90;99.90;8.80;99530.00;;;;4906637;28;100489;-65
2024/03/02 01:03:31;;;;;;;21.70;13.17;;;8.90;99.90;8.80;99526.00;;;;4909328;28;105118;-65
2024/03/02 01:05:57;;;;;;;24.13;14.13;;;9.00;99.90;8.90;99516.00;;;;4910345;28;93164;-65
2024/03/02 01:08:24;;;;;;;24.67;13.23;;;9.00;99.90;8.90;99523.00;;;;4905399;28;94462;-65
2024/03/02 01:10:49;;;;;;;20.70;11.43;;;8.90;99.90;8.90;99523.00;;;;4905793;28;114025;-65
2024/03/02 01:13:15;;;;;;;24.43;13.97;;;9.00;99.90;8.90;99529.00;;;;4908993;28;121683;-65
2024/03/02 01:15:41;;;;;;;25.33;15.30;;;9.00;99.90;8.90;99525.00;;;;4908120;28;114150;-65
2024/03/02 01:18:06;;;;;;;20.80;13.13;;;9.00;99.90;8.90;99528.00;;;;4906429;28;93962;-64
2024/03/02 01:20:32;;;;;;;23.07;13.17;;;9.00;99.90;8.90;99533.00;;;;4906973;28;122331;-65
2024/03/02 01:22:58;;;;;;;19.50;12.07;;;9.00;99.90;8.90;99519.00;;;;4913519;28;122300;-65
2024/03/02 01:25:23;;;;;;;20.27;12.13;;;9.00;99.90;8.90;99527.00;;;;4904239;28;113503;-66
2024/03/02 01:27:49;;;;;;;20.57;13.43;;;9.00;99.90;8.90;99534.00;;;;4904667;28;109337;-65
2024/03/02 01:30:15;;;;;;;21.50;13.33;;;9.00;99.90;9.00;99527.00;;;;4903825;28;123800;-65
2024/03/02 01:32:40;;;;;;;24.97;14.00;;;9.10;99.90;9.00;99526.00;;;;4904696;28;107598;-65
2024/03/02 01:35:07;;;;;;;22.83;13.17;;;9.10;99.90;9.00;99521.00;;;;4906981;28;111247;-65
2024/03/02 01:37:37;;;;;;;20.47;13.63;;;9.10;99.90;9.00;99519.00;;;;4908684;28;92818;-65
2024/03/02 01:40:08;;;;;;;14.83;11.40;;;9.10;99.90;9.00;99514.00;;;;4906433;28;93762;-65
2024/03/02 01:42:38;;;;;;;19.97;11.77;;;9.10;99.90;9.00;99519.00;;;;4903659;28;95041;-65
2024/03/02 01:45:08;;;;;;;23.13;13.37;;;9.10;99.90;9.00;99527.00;;;;4903392;28;93444;-66
2024/03/02 01:47:35;;;;;;;18.13;12.00;;;9.50;99.90;9.10;99514.00;;;;4909656;28;93280;-64
2024/03/02 01:50:00;;;;;;;21.83;13.53;;;9.10;99.90;9.00;99516.00;;;;4903964;28;94349;-66
2024/03/02 01:52:27;;;;;;;16.30;11.07;;;9.10;99.90;9.00;99516.00;;;;4902925;28;93095;-66
2024/03/02 01:54:53;;;;;;;19.27;12.20;;;9.20;99.90;9.10;99505.00;;;;4903184;28;93141;-65
2024/03/02 01:57:19;;;;;;;20.53;12.00;;;9.20;99.90;9.10;99510.00;;;;4903354;28;100757;-66
2024/03/02 01:59:47;;;;;;;20.60;12.80;;;9.10;99.90;9.10;99511.00;;;;4909902;28;120887;-65
2024/03/02 02:02:14;;;;;;;18.70;13.10;;;9.20;99.90;9.10;99522.00;;;;4905339;28;94470;-65
2024/03/02 02:04:40;;;;;;;17.10;11.70;;;9.20;99.90;9.10;99508.00;;;;4904608;28;93064;-65
2024/03/02 02:07:06;;;;;;;18.43;12.67;;;9.20;99.90;9.10;99516.00;;;;4901861;28;108323;-65
2024/03/02 02:09:32;;;;;;;20.53;12.20;;;9.20;99.90;9.00;99510.00;;;;4912228;28;93169;-65
2024/03/02 02:11:58;;;;;;;18.13;13.23;;;9.20;99.90;9.00;99511.00;;;;4909669;28;122593;-65
2024/03/02 02:14:23;;;;;;;21.13;13.93;;;9.10;99.90;9.00;99516.00;;;;4914718;28;111638;-64
2024/03/02 02:16:49;;;;;;;22.10;13.27;;;9.10;99.90;8.90;99513.00;;;;4909152;28;109268;-65
2024/03/02 02:19:15;;;;;;;31.20;15.40;;;9.10;99.90;8.90;99522.00;;;;4909896;28;93085;-65
2024/03/02 02:21:44;;;;;;;21.57;14.17;;;9.00;99.90;8.90;99516.00;;;;4912608;28;97734;-65
2024/03/02 02:24:10;;;;;;;15.07;11.73;;;9.00;99.90;8.90;99516.00;;;;4907430;28;114839;-65
2024/03/02 02:26:35;;;;;;;31.13;14.20;;;9.00;99.90;8.90;99523.00;;;;4911303;28;100960;-64
2024/03/02 02:29:02;;;;;;;23.47;13.97;;;9.00;99.90;8.90;99516.00;;;;4905007;28;121765;-64
2024/03/02 02:31:36;;;;;;;21.53;12.17;;;9.00;99.90;9.00;99514.00;;;;4904473;28;95692;-66
2024/03/02 02:34:02;;;;;;;18.83;12.53;;;9.00;99.90;9.00;99508.00;;;;4909245;28;93028;-64
2024/03/02 02:36:28;;;;;;;20.10;13.33;;;9.00;99.90;9.00;99510.00;;;;4909186;28;107797;-64
2024/03/02 02:38:53;;;;;;;17.23;11.93;;;9.10;99.90;9.00;99514.00;;;;4913190;28;94711;-64
2024/03/02 02:41:19;;;;;;;19.63;13.13;;;9.10;99.90;9.10;99503.00;;;;4912794;28;122883;-65
2024/03/02 02:43:45;;;;;;;15.37;10.30;;;9.10;99.90;9.10;99506.00;;;;4904282;28;113682;-66
2024/03/02 02:46:10;;;;;;;20.17;13.77;;;9.20;99.90;9.10;99510.00;;;;4907317;28;109604;-65
2024/03/02 02:48:36;;;;;;;17.60;12.37;;;9.20;99.90;9.10;99512.00;;;;4906775;28;121906;-65
2024/03/02 02:51:02;;;;;;;27.57;14.13;;;9.20;99.90;9.10;99515.00;;;;4909673;28;93153;-65
2024/03/02 02:53:27;;;;;;;20.77;13.60;;;9.20;99.90;9.10;99516.00;;;;4909139;28;104731;-64
2024/03/02 02:55:53;;;;;;;15.60;12.33;;;9.20;99.90;9.10;99512.00;;;;4909615;28;109001;-64
2024/03/02 02:58:19;;;;;;;18.23;11.90;;;9.20;99.90;9.10;99523.00;;;;4905790;28;120394;-64
2024/03/02 03:00:44;;;;;;;17.47;10.93;;;9.20;99.90;9.10;99513.00;;;;4904496;28;121994;-65
2024/03/02 03:03:10;;;;;;;26.90;12.13;;;9.30;99.90;9.10;99508.00;;;;4910399;28;113626;-65
2024/03/02 03:05:35;;;;;;;20.90;11.60;;;9.20;99.90;9.10;99516.00;;;;4910717;28;108174;-65
2024/03/02 03:08:01;;;;;;;22.23;13.23;;;9.20;99.90;9.10;99508.00;;;;4910753;28;120682;-65
2024/03/02 03:10:27;;;;;;;17.23;12.23;;;9.00;99.90;9.10;99522.00;;;;4909244;28;122605;-65
2024/03/02 03:12:55;;;;;;;19.60;13.00;;;9.20;99.90;9.10;99525.00;;;;4913953;28;93288;-65
2024/03/02 03:15:21;;;;;;;20.03;12.27;;;9.10;99.90;9.00;99519.00;;;;4913540;28;93002;-65
2024/03/02 03:17:47;;;;;;;18.80;11.83;;;9.20;99.90;9.00;99511.00;;;;4910330;28;122765;-65
2024/03/02 03:20:14;;;;;;;20.00;11.53;;;9.10;99.90;9.00;99508.00;;;;4907745;28;94148;-65
2024/03/02 03:22:39;;;;;;;22.03;10.87;;;9.10;99.90;9.10;99513.00;;;;4912726;28;92742;-64
2024/03/02 03:25:06;;;;;;;23.87;13.10;;;9.20;99.90;9.10;99512.00;;;;4907669;28;106013;-64
2024/03/02 03:27:32;;;;;;;17.73;11.27;;;9.20;99.90;9.10;99515.00;;;;4907490;28;93355;-66
2024/03/02 03:29:58;;;;;;;18.13;12.40;;;9.30;99.90;9.10;99499.00;;;;4906824;28;93664;-64
2024/03/02 03:32:23;;;;;;;18.73;11.23;;;9.20;99.90;9.10;99499.00;;;;4905792;28;96441;-64
2024/03/02 03:34:49;;;;;;;20.07;13.80;;;9.20;99.90;9.10;99506.00;;;;4907584;28;93042;-64
2024/03/02 03:37:15;;;;;;;16.60;12.17;;;9.30;99.90;9.10;99511.00;;;;4909123;28;121813;-65
2024/03/02 03:39:41;;;;;;;17.93;13.07;;;9.30;99.90;9.10;99505.00;;;;4904981;28;92887;-65
2024/03/02 03:42:06;;;;;;;19.37;13.23;;;9.20;99.90;9.10;99511.00;;;;4907831;28;113683;-65
2024/03/02 03:44:33;;;;;;;22.10;13.33;;;8.90;99.90;9.10;99509.00;;;;4908192;28;94497;-65
2024/03/02 03:46:59;;;;;;;22.47;12.07;;;9.20;99.90;9.00;99504.00;;;;4912282;28;93743;-64
2024/03/02 03:49:24;;;;;;;18.20;12.37;;;9.20;99.90;9.00;99505.00;;;;4909808;28;102705;-64
2024/03/02 03:51:50;;;;;;;18.80;11.17;;;9.10;99.90;9.00;99506.00;;;;4908892;28;96291;-65
2024/03/02 03:54:16;;;;;;;21.60;12.47;;;9.10;99.90;9.00;99495.00;;;;4905652;28;107770;-65
2024/03/02 03:56:41;;;;;;;15.30;11.17;;;9.10;99.90;9.00;99504.00;;;;4908249;28;124022;-65
2024/03/02 03:59:07;;;;;;;24.40;13.80;;;9.10;99.90;9.00;99505.00;;;;4906532;28;124005;-65
2024/03/02 04:01:33;;;;;;;18.17;12.73;;;9.10;99.90;9.00;99514.00;;;;4910421;28;112051;-64
2024/03/02 04:03:59;;;;;;;22.80;14.33;;;9.10;99.90;9.00;99513.00;;;;4908355;28;94810;-64
2024/03/02 04:06:25;;;;;;;17.73;11.07;;;9.10;99.90;9.00;99516.00;;;;4910342;28;123143;-64
2024/03/02 04:08:51;;;;;;;19.73;10.70;;;9.00;99.90;9.00;99506.00;;;;4905935;28;93792;-66
2024/03/02 04:11:16;;;;;;;15.37;10.73;;;9.10;99.90;9.00;99509.00;;;;4906826;28;113119;-64
2024/03/02 04:13:42;;;;;;;24.63;12.67;;;9.10;99.90;9.00;99513.00;;;;4909730;28;107749;-66
2024/03/02 04:16:07;;;;;;;27.90;12.97;;;9.10;99.90;9.00;99521.00;;;;4907600;28;123023;-64
2024/03/02 04:18:33;;;;;;;19.50;12.90;;;9.10;99.90;9.00;99521.00;;;;4905889;28;121893;-65
2024/03/02 04:20:59;;;;;;;18.60;11.73;;;9.10;99.90;9.00;99525.00;;;;4907526;28;92890;-64
2024/03/02 04:23:26;;;;;;;19.10;12.03;;;9.10;99.90;9.00;99520.00;;;;4908085;28;92975;-65
2024/03/02 04:25:52;;;;;;;18.60;11.67;;;9.10;99.90;9.00;99528.00;;;;4908917;28;93377;-66
2024/03/02 04:28:17;;;;;;;21.67;12.80;;;9.10;99.90;9.00;99530.00;;;;4907247;28;123486;-66
2024/03/02 04:30:43;;;;;;;16.20;10.30;;;9.10;99.90;9.00;99534.00;;;;4903620;28;113141;-66
2024/03/02 04:33:09;;;;;;;16.67;11.10;;;9.10;99.90;9.00;99529.00;;;;4906869;28;94439;-65
2024/03/02 04:35:36;;;;;;;16.87;11.50;;;9.10;99.90;9.00;99537.00;;;;4909416;28;94202;-65
2024/03/02 04:38:02;;;;;;;22.70;13.43;;;9.10;99.90;9.00;99546.00;;;;4912817;28;115633;-65
2024/03/02 04:40:27;;;;;;;20.07;11.60;;;9.10;99.90;9.00;99526.00;;;;4909053;28;112579;-65
2024/03/02 04:42:54;;;;;;;16.73;11.00;;;9.10;99.90;9.00;99529.00;;;;4908458;28;108711;-65
2024/03/02 04:45:19;;;;;;;20.93;11.07;;;9.10;99.90;9.00;99530.00;;;;4903247;28;94456;-65
2024/03/02 04:47:45;;;;;;;18.63;12.63;;;9.00;99.90;9.00;99523.00;;;;4904256;28;121712;-65
2024/03/02 04:50:10;;;;;;;19.83;12.53;;;9.10;99.90;9.00;99533.00;;;;4907508;28;114227;-65
2024/03/02 04:52:36;;;;;;;18.10;12.43;;;9.10;99.90;9.00;99540.00;;;;4905442;28;108315;-65
2024/03/02 04:55:09;;;;;;;18.80;12.57;;;9.10;99.90;9.00;99540.00;;;;4909887;28;92842;-65
2024/03/02 04:57:35;;;;;;;22.40;12.57;;;9.10;99.90;8.90;99539.00;;;;4903481;28;94791;-64
2024/03/02 05:00:01;;;;;;;20.50;12.57;;;9.10;99.90;8.90;99541.00;;;;4902366;28;112954;-65
2024/03/02 05:02:27;;;;;;;17.70;11.20;;;9.00;99.90;8.90;99541.00;;;;4904275;28;92976;-65
2024/03/02 05:04:52;;;;;;;17.10;10.27;;;9.10;99.90;8.90;99542.00;;;;4906882;28;123267;-65
2024/03/02 05:07:18;;;;;;;14.23;11.00;;;9.00;99.90;8.90;99544.00;;;;4905734;28;122580;-65
2024/03/02 05:09:44;;;;;;;17.47;11.03;;;9.00;99.90;8.90;99552.00;;;;4907956;28;112959;-65
2024/03/02 05:14:55;;;;;;;15.80;11.50;;;9.00;99.90;8.80;99560.00;;;;4910278;28;92338;-65
2024/03/02 05:17:21;;;;;;;18.20;11.50;;;9.00;99.90;8.90;99560.00;;;;4903865;28;93015;-66
2024/03/02 05:19:47;;;;;;;16.13;12.60;;;9.00;99.90;8.90;99567.00;;;;4907310;28;112669;-65
2024/03/02 05:22:12;;;;;;;17.70;11.43;;;8.90;99.90;8.90;99571.00;;;;4905057;28;109190;-65
2024/03/02 05:24:38;;;;;;;24.67;13.53;;;9.00;99.90;8.90;99585.00;;;;4907734;28;122133;-65
2024/03/02 05:27:04;;;;;;;20.97;11.90;;;8.90;99.90;8.80;99591.00;;;;4901937;28;123807;-65
2024/03/02 05:29:30;;;;;;;24.00;12.20;;;9.00;99.90;8.80;99585.00;;;;4905452;28;93046;-65
2024/03/02 05:31:55;;;;;;;20.77;12.73;;;8.90;99.90;8.80;99584.00;;;;4906280;28;108418;-65
2024/03/02 05:34:21;;;;;;;19.97;14.00;;;8.90;99.90;8.80;99588.00;;;;4904371;28;93661;-64
2024/03/02 05:36:47;;;;;;;19.70;13.63;;;8.80;99.90;8.80;99593.00;;;;4909010;28;120945;-65
2024/03/02 05:39:12;;;;;;;15.80;11.73;;;8.90;99.90;8.80;99590.00;;;;4906628;28;114540;-64
2024/03/02 05:41:38;;;;;;;20.43;13.27;;;8.90;99.90;8.80;99597.00;;;;4908522;28;93101;-64
2024/03/02 05:44:04;;;;;;;21.97;12.83;;;8.90;99.90;8.80;99599.00;;;;4909864;28;122050;-64
2024/03/02 05:46:30;;;;;;;23.37;14.27;;;8.90;99.90;8.90;99586.00;;;;4910801;28;115012;-65
2024/03/02 05:48:55;;;;;;;18.50;13.53;;;8.90;99.90;8.90;99590.00;;;;4907987;28;93223;-66
2024/03/02 05:51:21;;;;;;;16.67;11.80;;;9.00;99.90;8.90;99595.00;;;;4912193;28;92978;-64
2024/03/02 05:53:47;;;;;;;20.20;13.00;;;9.00;99.90;8.90;99592.00;;;;4914300;28;121704;-65
2024/03/02 05:56:13;;;;;;;16.40;12.07;;;9.00;99.90;9.00;99603.00;;;;4907649;28;93491;-65
2024/03/02 06:01:28;;;;;;;19.43;12.60;;;9.10;99.90;9.00;99596.00;;;;4905479;28;92988;-65
2024/03/02 06:03:57;;;;;;;20.93;13.00;;;9.10;99.90;9.00;99609.00;;;;4909688;28;92137;-65
2024/03/02 06:06:23;;;;;;;18.73;11.70;;;9.20;99.90;9.10;99597.00;;;;4908982;28;93002;-65
2024/03/02 06:08:48;;;;;;;21.27;12.47;;;9.10;99.90;9.10;99606.00;;;;4907412;28;113282;-64
2024/03/02 06:11:14;;;;;;;21.43;13.13;;;9.20;99.90;9.10;99605.00;;;;4905266;28;108604;-64
2024/03/02 06:13:40;;;;;;;19.10;13.53;;;9.10;99.90;9.10;99615.00;;;;4913925;28;93393;-65
2024/03/02 06:16:06;;;;;;;22.13;14.73;;;8.90;99.90;9.00;99620.00;;;;4910102;28;121356;-65
2024/03/02 06:18:31;;;;;;;21.60;14.00;;;9.10;99.90;9.00;99618.00;;;;4908126;28;93035;-65
2024/03/02 06:20:57;;;;;;;19.40;12.60;;;9.10;99.90;9.00;99624.00;;;;4911342;28;109798;-64
2024/03/02 06:23:23;;;;;;;20.47;12.67;;;9.10;99.90;9.00;99621.00;;;;4906818;28;121609;-66
2024/03/02 06:25:48;;;;;;;19.33;13.20;;;9.10;99.90;9.00;99633.00;;;;4911353;28;98929;-66
2024/03/02 06:28:17;;;;;;;22.83;13.07;;;9.10;99.90;9.00;99634.00;;;;4906962;28;112844;-66
2024/03/02 06:30:43;;;;;;;23.10;12.60;;;9.10;99.90;9.00;99636.00;;;;4908267;28;92945;-64
2024/03/02 06:33:09;;;;;;;15.83;10.93;;;9.10;99.90;9.00;99640.00;;;;4901743;28;93706;-64
2024/03/02 06:35:35;;;;;;;21.50;14.23;;;9.10;99.90;9.00;99643.00;;;;4904758;28;117665;-65
2024/03/02 06:38:01;;;;;;;20.30;14.13;;;9.00;99.90;9.00;99642.00;;;;4906186;28;93014;-65
2024/03/02 06:40:27;;;;;;;21.90;13.47;;;9.00;99.90;9.00;99647.00;;;;4905159;28;92983;-65
2024/03/02 06:42:53;;;;;;;23.33;14.23;;;9.00;99.90;9.00;99644.00;;;;4903707;28;122482;-66
2024/03/02 06:45:18;;;;;;;24.43;16.30;;;9.10;99.90;9.00;99647.00;;;;4906030;28;122236;-66
2024/03/02 06:47:44;;;;;;;20.67;15.40;;;9.00;99.90;9.00;99646.00;;;;4904246;28;111845;-66
2024/03/02 06:50:10;;;;;;;20.43;14.27;;;9.10;99.90;9.00;99660.00;;;;4904768;28;92973;-66
2024/03/02 06:52:36;;;;;;;15.23;11.10;;;9.10;99.90;9.00;99645.00;;;;4905309;28;120290;-64
2024/03/02 06:55:02;;;;;;;22.07;13.80;;;9.10;99.90;9.00;99648.00;;;;4904555;28;93746;-65
2024/03/02 06:57:28;;;;;;;19.23;12.63;;;9.10;99.90;9.00;99649.00;;;;4906595;28;92725;-65
2024/03/02 06:59:58;;;;;;;20.70;12.23;;;9.10;99.90;9.00;99644.00;;;;4902753;28;105724;-64
2024/03/02 07:02:26;;;;;;;22.17;13.77;;;9.20;99.90;9.10;99652.00;;;;4903058;28;93352;-65
2024/03/02 07:04:53;;;;;;;22.27;13.30;;;9.20;99.90;9.10;99652.00;;;;4904819;28;121596;-64
2024/03/02 07:07:19;;;;;;;18.57;13.23;;;9.20;99.90;9.10;99664.00;;;;4905514;28;93097;-64
2024/03/02 07:09:45;;;;;;;17.03;12.80;;;9.20;99.90;9.10;99673.00;;;;4905787;28;109308;-66
2024/03/02 07:12:11;;;;;;;24.90;18.10;;;9.20;99.90;9.10;99673.00;;;;4904967;28;105357;-64
2024/03/02 07:17:21;;;;;;;19.03;14.23;;;9.20;99.90;9.10;99668.00;;;;4910053;28;92054;-64
2024/03/02 07:19:47;;;;;;;20.03;15.00;;;9.20;99.90;9.10;99664.00;;;;4906860;28;108700;-64
2024/03/02 07:22:13;;;;;;;15.43;12.33;;;9.20;99.90;9.10;99669.00;;;;4903834;28;93949;-65
2024/03/02 07:24:42;;;;;;;18.03;12.90;;;9.10;99.90;9.10;99675.00;;;;4906046;28;95378;-65
2024/03/02 07:27:13;;;;;;;14.83;11.83;;;9.20;99.90;9.10;99675.00;;;;4906419;28;92644;-65
2024/03/02 07:29:39;;;;;;;23.83;15.10;;;9.20;99.90;9.10;99677.00;;;;4905354;28;93262;-65
2024/03/02 07:32:07;;;;;;;23.30;14.40;;;9.20;99.90;9.10;99681.00;;;;4903097;28;93931;-64
2024/03/02 07:34:33;;;;;;;21.57;12.83;;;9.20;99.90;9.10;99678.00;;;;4906817;28;94131;-65
2024/03/02 07:36:59;;;;;;;26.70;14.70;;;9.20;99.90;9.10;99686.00;;;;4901883;28;114337;-65
2024/03/02 07:39:25;;;;;;;23.47;14.80;;;9.20;99.90;9.00;99679.00;;;;4900933;28;109062;-64
2024/03/02 07:41:51;;;;;;;27.27;17.00;;;9.20;99.90;9.00;99688.00;;;;4905187;28;115381;-65
2024/03/02 07:44:18;;;;;;;24.43;16.17;;;9.10;99.90;9.00;99694.00;;;;4905682;28;93008;-64
2024/03/02 07:46:46;;;;;;;22.20;14.50;;;9.20;99.90;9.10;99692.00;;;;4907467;28;93286;-65
2024/03/02 07:49:14;;;;;;;29.03;17.97;;;9.20;99.90;9.10;99689.00;;;;4905617;28;93876;-64
2024/03/02 07:51:39;;;;;;;24.27;15.47;;;9.10;99.90;9.10;99694.00;;;;4906591;28;93552;-65
2024/03/02 07:54:05;;;;;;;30.03;17.37;;;9.20;99.90;9.10;99696.00;;;;4911172;28;122539;-65
2024/03/02 07:56:31;;;;;;;23.43;15.80;;;9.20;99.90;9.10;99707.00;;;;4914124;28;92899;-66
2024/03/02 07:59:00;;;;;;;26.67;16.47;;;9.20;99.90;9.10;99700.00;;;;4909542;28;93104;-65
2024/03/02 08:01:29;;;;;;;26.97;16.33;;;9.20;99.90;9.20;99706.00;;;;4909285;28;94404;-65
2024/03/02 08:03:57;;;;;;;25.43;17.10;;;9.30;99.90;9.20;99719.00;;;;4905851;28;93941;-65
2024/03/02 08:06:22;;;;;;;31.30;17.87;;;9.30;99.90;9.20;99721.00;;;;4904461;28;92254;-64
2024/03/02 08:08:48;;;;;;;31.43;19.07;;;9.30;99.90;9.20;99718.00;;;;4909885;28;93139;-65
2024/03/02 08:11:14;;;;;;;27.50;16.63;;;9.30;99.90;9.20;99723.00;;;;4908225;28;94494;-64
2024/03/02 08:13:39;;;;;;;33.37;17.20;;;9.30;99.90;9.20;99719.00;;;;4908236;28;121258;-66
2024/03/02 08:16:09;;;;;;;24.73;17.80;;;9.30;99.90;9.30;99727.00;;;;4910200;28;111667;-66
2024/03/02 08:18:35;;;;;;;27.30;17.73;;;9.10;99.90;9.30;99722.00;;;;4910140;28;93251;-65
2024/03/02 08:21:00;;;;;;;32.70;19.00;;;9.40;99.90;9.30;99729.00;;;;4923179;28;122816;-65
2024/03/02 08:23:26;;;;;;;28.37;18.13;;;9.40;99.90;9.30;99731.00;;;;4907629;28;93963;-65
2024/03/02 08:25:52;;;;;;;23.50;16.50;;;9.40;99.90;9.30;99728.00;;;;4907525;28;113656;-65
2024/03/02 08:28:17;;;;;;;30.80;18.07;;;9.40;99.90;9.30;99736.00;;;;4903426;28;108654;-64
2024/03/02 08:30:43;;;;;;;31.33;17.20;;;9.40;99.90;9.30;99739.00;;;;4904331;28;120151;-65
2024/03/02 08:33:09;;;;;;;24.57;15.70;;;9.40;99.90;9.30;99741.00;;;;4918485;28;109518;-65
2024/03/02 08:35:36;;;;;;;26.37;17.70;;;9.40;99.90;9.40;99745.00;;;;4903299;28;113343;-65
2024/03/02 08:38:03;;;;;;;24.07;17.17;;;9.50;99.90;9.40;99749.00;;;;4901662;28;93923;-64
2024/03/02 08:40:29;;;;;;;32.97;17.27;;;9.50;99.90;9.40;99745.00;;;;4903509;28;94162;-64
2024/03/02 08:42:54;;;;;;;26.43;16.50;;;9.40;99.90;9.40;99737.00;;;;4903853;28;123137;-64
2024/03/02 08:45:20;;;;;;;22.53;16.13;;;9.50;99.90;9.40;99739.00;;;;4907178;28;112994;-63
2024/03/02 08:47:47;;;;;;;38.33;19.73;;;9.50;99.90;9.40;99742.00;;;;4908985;28;93015;-64
2024/03/02 08:50:12;;;;;;;31.23;18.83;;;9.30;99.90;9.50;99732.00;;;;4904196;28;93816;-63
2024/03/02 08:52:38;;;;;;;30.13;18.03;;;9.60;99.90;9.50;99738.00;;;;4912586;28;110308;-64
2024/03/02 08:55:04;;;;;;;28.57;16.60;;;9.60;99.90;9.50;99742.00;;;;4905721;28;92138;-65
2024/03/02 08:57:31;;;;;;;32.93;19.20;;;9.60;99.90;9.60;99729.00;;;;4904446;28;93176;-66
2024/03/02 08:59:57;;;;;;;45.13;19.50;;;9.70;99.90;9.60;99744.00;;;;4902790;28;111338;-64
2024/03/02 09:02:23;;;;;;;30.70;18.97;;;9.60;99.90;9.70;99743.00;;;;4905249;28;100284;-65
2024/03/02 09:04:49;;;;;;;31.03;18.47;;;9.70;99.90;9.70;99752.00;;;;4903225;28;113209;-65
2024/03/02 09:07:15;;;;;;;40.23;19.67;;;9.80;99.90;9.80;99746.00;;;;4905678;28;92717;-65
2024/03/02 09:09:40;;;;;;;27.87;17.00;;;9.80;99.90;9.80;99733.00;;;;4907589;28;123337;-65
2024/03/02 09:12:07;;;;;;;29.93;18.20;;;9.80;99.90;9.90;99734.00;;;;4906437;28;121831;-65
2024/03/02 09:14:33;;;;;;;29.70;18.87;;;10.50;99.90;9.90;99736.00;;;;4909393;28;92843;-63
2024/03/02 09:16:59;;;;;;;28.77;19.30;;;9.90;99.90;9.90;99734.00;;;;4905528;28;97600;-66
2024/03/02 09:19:25;;;;;;;30.97;16.53;;;10.00;99.90;10.00;99750.00;;;;4908226;28;121575;-65
2024/03/02 09:21:50;;;;;;;26.70;16.40;;;10.00;99.90;10.00;99746.00;;;;4904159;28;93155;-65
2024/03/02 09:24:16;;;;;;;30.00;18.27;;;10.10;99.90;10.10;99741.00;;;;4905274;28;92876;-65
2024/03/02 09:26:42;;;;;;;24.70;16.90;;;10.20;99.90;10.20;99742.00;;;;4902342;28;108473;-65
2024/03/02 09:29:07;;;;;;;30.57;17.50;;;10.20;99.90;10.20;99744.00;;;;4912771;28;123631;-64
2024/03/02 09:31:33;;;;;;;35.47;17.27;;;10.30;99.90;10.30;99747.00;;;;4902909;28;105765;-65
2024/03/02 09:33:59;;;;;;;22.80;15.97;;;10.30;99.90;10.30;99757.00;;;;4909286;28;111750;-65
2024/03/02 09:36:24;;;;;;;32.73;18.27;;;10.40;99.90;10.40;99755.00;;;;4901093;28;108736;-65
2024/03/02 09:38:50;;;;;;;34.47;17.10;;;10.40;99.90;10.40;99766.00;;;;4906991;28;122806;-65
2024/03/02 09:41:16;;;;;;;32.17;17.53;;;10.40;99.90;10.40;99773.00;;;;4904757;28;93813;-66
2024/03/02 09:43:42;;;;;;;26.57;16.07;;;10.50;99.90;10.50;99779.00;;;;4908416;28;92247;-66
2024/03/02 09:46:10;;;;;;;26.93;15.60;;;10.50;99.90;10.50;99774.00;;;;4904833;28;92862;-65
2024/03/02 09:48:35;;;;;;;29.80;16.93;;;10.60;99.90;10.50;99773.00;;;;4917197;28;93856;-65
2024/03/02 09:51:03;;;;;;;24.47;14.10;;;10.60;99.90;10.60;99768.00;;;;4902283;28;120618;-65
2024/03/02 09:53:32;;;;;;;28.50;15.57;;;10.60;99.90;10.60;99779.00;;;;4903221;28;94060;-65
2024/03/02 09:55:59;;;;;;;28.20;16.93;;;10.70;99.90;10.70;99767.00;;;;4904330;28;92972;-65
2024/03/02 09:58:25;;;;;;;29.00;17.77;;;10.70;99.90;10.70;99771.00;;;;4902714;28;93567;-65
2024/03/02 10:00:51;;;;;;;36.80;18.73;;;10.80;99.90;10.80;99764.00;;;;4908352;28;122969;-65
2024/03/02 10:03:19;;;;;;;29.97;14.97;;;10.80;99.90;10.80;99776.00;;;;4902698;28;113110;-65
2024/03/02 10:05:45;;;;;;;25.77;16.53;;;10.90;99.90;10.90;99775.00;;;;4906955;28;92989;-65
2024/03/02 10:08:10;;;;;;;29.40;16.33;;;10.90;99.90;10.90;99766.00;;;;4907215;28;119839;-65
2024/03/02 10:10:44;;;;;;;31.30;15.90;;;10.90;99.90;11.00;99776.00;;;;4906825;28;121374;-65
2024/03/02 10:13:12;;;;;;;26.87;16.43;;;11.00;99.90;11.10;99763.00;;;;4903309;28;92962;-65
2024/03/02 10:15:42;;;;;;;30.77;17.83;;;11.10;99.90;11.20;99765.00;;;;4901100;28;93943;-65
2024/03/02 10:18:12;;;;;;;31.00;16.00;;;11.20;99.90;11.30;99758.00;;;;4898283;28;94177;-65
2024/03/02 10:20:39;;;;;;;28.40;16.03;;;11.30;99.90;11.40;99748.00;;;;4903934;28;94461;-65
2024/03/02 10:23:16;;;;;;;35.13;15.87;;;11.40;99.90;11.60;99750.00;;;;4909120;28;92925;-65
2024/03/02 10:25:43;;;;;;;28.43;14.53;;;11.50;99.90;11.80;99740.00;;;;4915588;28;96343;-65
2024/03/02 10:28:09;;;;;;;30.23;15.60;;;11.70;99.90;12.00;99746.00;;;;4901407;28;93696;-65
2024/03/02 10:30:35;;;;;;;27.87;14.87;;;12.00;99.90;12.20;99748.00;;;;4903130;28;123322;-65
2024/03/02 10:33:02;;;;;;;27.63;14.30;;;12.10;99.90;12.30;99745.00;;;;4908776;28;92386;-65
2024/03/02 10:35:28;;;;;;;23.70;14.93;;;12.20;99.90;12.40;99741.00;;;;4909733;28;102218;-65
2024/03/02 10:37:54;;;;;;;20.43;12.70;;;12.30;99.90;12.50;99731.00;;;;4905355;28;93411;-65
2024/03/02 10:40:23;;;;;;;24.90;12.63;;;12.40;99.90;12.60;99734.00;;;;4906024;28;94157;-66
2024/03/02 10:42:51;;;;;;;21.20;11.47;;;12.50;99.90;12.70;99730.00;;;;4903026;28;92851;-65
2024/03/02 10:45:22;;;;;;;23.80;12.20;;;12.70;99.90;12.90;99727.00;;;;4913835;28;94149;-66
2024/03/02 10:47:48;;;;;;;21.80;12.47;;;12.80;99.90;13.20;99725.00;;;;4909203;28;93239;-65
2024/03/02 10:50:14;;;;;;;22.10;11.57;;;13.10;99.90;13.50;99725.00;;;;4910670;28;94039;-64
2024/03/02 10:52:40;;;;;;;17.87;10.30;;;13.30;99.90;13.70;99721.00;;;;4906177;28;112171;-64
2024/03/02 10:55:09;;;;;;;12.40;7.97;;;13.50;99.90;13.90;99727.00;;;;4907551;28;92826;-63